sensor_id;sensor_type;location;lat;lon;timestamp;temperature;humidity
70762;DHT22;58360;0.000;0.000;2023-01-29T00:01:21;0.50;87.50
70762;DHT22;58360;0.000;0.000;2023-01-29T00:03:50;0.50;87.80
70762;DHT22;58360;0.000;0.000;2023-01-29T00:06:15;0.50;87.90
70762;DHT22;58360;0.000;0.000;2023-01-29T00:08:41;0.60;88.00
70762;DHT22;58360;0.000;0.000;2023-01-29T00:11:07;0.60;87.50
70762;DHT22;58360;0.000;0.000;2023-01-29T00:13:34;0.60;87.60
70762;DHT22;58360;0.000;0.000;2023-01-29T00:16:00;0.60;87.60
70762;DHT22;58360;0.000;0.000;2023-01-29T00:18:26;0.70;87.80
70762;DHT22;58360;0.000;0.000;2023-01-29T00:20:53;0.60;87.50
70762;DHT22;58360;0.000;0.000;2023-01-29T00:23:19;0.60;87.50
70762;DHT22;58360;0.000;0.000;2023-01-29T00:25:45;0.60;87.50
70762;DHT22;58360;0.000;0.000;2023-01-29T00:28:11;0.60;87.10
70762;DHT22;58360;0.000;0.000;2023-01-29T00:30:37;0.60;87.00
70762;DHT22;58360;0.000;0.000;2023-01-29T00:33:03;0.70;86.90
70762;DHT22;58360;0.000;0.000;2023-01-29T00:35:29;0.70;86.80
70762;DHT22;58360;0.000;0.000;2023-01-29T00:37:55;0.60;87.00
70762;DHT22;58360;0.000;0.000;2023-01-29T00:40:21;0.50;87.20
70762;DHT22;58360;0.000;0.000;2023-01-29T00:42:48;0.40;87.50
70762;DHT22;58360;0.000;0.000;2023-01-29T00:45:32;0.40;87.70
70762;DHT22;58360;0.000;0.000;2023-01-29T00:47:58;0.30;87.90
70762;DHT22;58360;0.000;0.000;2023-01-29T00:50:24;0.30;88.20
70762;DHT22;58360;0.000;0.000;2023-01-29T00:52:49;0.40;88.20
70762;DHT22;58360;0.000;0.000;2023-01-29T00:55:17;0.40;88.20
70762;DHT22;58360;0.000;0.000;2023-01-29T00:57:43;0.40;88.10
70762;DHT22;58360;0.000;0.000;2023-01-29T01:00:12;0.40;88.10
70762;DHT22;58360;0.000;0.000;2023-01-29T01:02:38;0.30;88.40
70762;DHT22;58360;0.000;0.000;2023-01-29T01:05:23;0.40;88.50
70762;DHT22;58360;0.000;0.000;2023-01-29T01:07:52;0.40;88.50
70762;DHT22;58360;0.000;0.000;2023-01-29T01:10:24;0.40;88.60
70762;DHT22;58360;0.000;0.000;2023-01-29T01:12:54;0.40;88.70
70762;DHT22;58360;0.000;0.000;2023-01-29T01:15:22;0.40;88.70
70762;DHT22;58360;0.000;0.000;2023-01-29T01:17:52;0.60;88.10
70762;DHT22;58360;0.000;0.000;2023-01-29T01:20:18;0.60;87.60
70762;DHT22;58360;0.000;0.000;2023-01-29T01:22:43;0.50;87.80
70762;DHT22;58360;0.000;0.000;2023-01-29T01:25:09;0.50;87.90
70762;DHT22;58360;0.000;0.000;2023-01-29T01:27:35;0.50;87.80
70762;DHT22;58360;0.000;0.000;2023-01-29T01:30:07;0.50;87.90
70762;DHT22;58360;0.000;0.000;2023-01-29T01:32:33;0.40;88.10
70762;DHT22;58360;0.000;0.000;2023-01-29T01:34:58;0.60;87.80
70762;DHT22;58360;0.000;0.000;2023-01-29T01:37:24;0.50;87.40
70762;DHT22;58360;0.000;0.000;2023-01-29T01:39:50;0.50;87.70
70762;DHT22;58360;0.000;0.000;2023-01-29T01:42:15;0.40;88.10
70762;DHT22;58360;0.000;0.000;2023-01-29T01:45:13;0.50;88.20
70762;DHT22;58360;0.000;0.000;2023-01-29T01:47:48;0.60;87.60
70762;DHT22;58360;0.000;0.000;2023-01-29T01:50:38;0.60;87.80
70762;DHT22;58360;0.000;0.000;2023-01-29T01:53:10;0.50;87.80
70762;DHT22;58360;0.000;0.000;2023-01-29T01:55:57;0.50;87.70
70762;DHT22;58360;0.000;0.000;2023-01-29T01:58:55;0.50;87.70
70762;DHT22;58360;0.000;0.000;2023-01-29T02:01:23;0.40;88.20
70762;DHT22;58360;0.000;0.000;2023-01-29T02:04:05;0.20;88.50
70762;DHT22;58360;0.000;0.000;2023-01-29T02:06:50;0.20;88.80
70762;DHT22;58360;0.000;0.000;2023-01-29T02:09:39;0.20;89.40
70762;DHT22;58360;0.000;0.000;2023-01-29T02:12:10;0.30;88.70
70762;DHT22;58360;0.000;0.000;2023-01-29T02:14:37;0.30;88.80
70762;DHT22;58360;0.000;0.000;2023-01-29T02:17:05;0.20;88.90
70762;DHT22;58360;0.000;0.000;2023-01-29T02:25:49;0.20;89.60
70762;DHT22;58360;0.000;0.000;2023-01-29T02:28:31;0.30;89.40
70762;DHT22;58360;0.000;0.000;2023-01-29T02:33:40;0.30;89.70
70762;DHT22;58360;0.000;0.000;2023-01-29T02:36:26;0.40;89.70
70762;DHT22;58360;0.000;0.000;2023-01-29T02:44:36;0.50;88.90
70762;DHT22;58360;0.000;0.000;2023-01-29T02:49:58;0.70;89.20
70762;DHT22;58360;0.000;0.000;2023-01-29T02:58:32;1.20;86.50
70762;DHT22;58360;0.000;0.000;2023-01-29T03:01:08;1.40;85.80
70762;DHT22;58360;0.000;0.000;2023-01-29T03:03:42;1.40;85.30
70762;DHT22;58360;0.000;0.000;2023-01-29T03:06:32;1.40;85.30
70762;DHT22;58360;0.000;0.000;2023-01-29T03:09:18;1.60;84.40
70762;DHT22;58360;0.000;0.000;2023-01-29T03:11:50;1.60;84.00
70762;DHT22;58360;0.000;0.000;2023-01-29T03:14:34;1.40;84.70
70762;DHT22;58360;0.000;0.000;2023-01-29T03:17:25;1.40;84.90
70762;DHT22;58360;0.000;0.000;2023-01-29T03:19:52;1.50;84.40
70762;DHT22;58360;0.000;0.000;2023-01-29T03:22:19;1.30;85.00
70762;DHT22;58360;0.000;0.000;2023-01-29T03:24:58;1.30;85.50
70762;DHT22;58360;0.000;0.000;2023-01-29T03:27:54;1.20;85.60
70762;DHT22;58360;0.000;0.000;2023-01-29T03:31:02;1.30;86.00
70762;DHT22;58360;0.000;0.000;2023-01-29T03:36:49;1.30;85.50
70762;DHT22;58360;0.000;0.000;2023-01-29T03:39:23;1.30;85.80
70762;DHT22;58360;0.000;0.000;2023-01-29T03:42:23;1.30;85.50
70762;DHT22;58360;0.000;0.000;2023-01-29T03:56:00;1.30;85.50
70762;DHT22;58360;0.000;0.000;2023-01-29T04:01:13;1.50;84.50
70762;DHT22;58360;0.000;0.000;2023-01-29T04:03:53;1.40;84.60
70762;DHT22;58360;0.000;0.000;2023-01-29T04:06:30;1.40;84.70
70762;DHT22;58360;0.000;0.000;2023-01-29T04:09:18;1.50;84.30
70762;DHT22;58360;0.000;0.000;2023-01-29T04:11:58;1.50;84.30
70762;DHT22;58360;0.000;0.000;2023-01-29T04:14:26;1.60;83.40
70762;DHT22;58360;0.000;0.000;2023-01-29T04:16:54;1.70;83.70
70762;DHT22;58360;0.000;0.000;2023-01-29T04:19:21;1.50;84.20
70762;DHT22;58360;0.000;0.000;2023-01-29T04:21:49;1.60;84.20
70762;DHT22;58360;0.000;0.000;2023-01-29T04:24:19;1.60;84.10
70762;DHT22;58360;0.000;0.000;2023-01-29T04:32:18;1.80;83.00
70762;DHT22;58360;0.000;0.000;2023-01-29T04:39:53;1.80;82.80
70762;DHT22;58360;0.000;0.000;2023-01-29T04:45:27;1.80;83.00
70762;DHT22;58360;0.000;0.000;2023-01-29T04:48:09;1.90;82.50
70762;DHT22;58360;0.000;0.000;2023-01-29T04:50:44;1.80;83.40
70762;DHT22;58360;0.000;0.000;2023-01-29T04:53:21;1.70;83.70
70762;DHT22;58360;0.000;0.000;2023-01-29T04:56:16;1.70;83.70
70762;DHT22;58360;0.000;0.000;2023-01-29T04:58:48;1.90;83.70
70762;DHT22;58360;0.000;0.000;2023-01-29T05:01:18;2.00;82.90
70762;DHT22;58360;0.000;0.000;2023-01-29T05:03:48;2.00;82.00
70762;DHT22;58360;0.000;0.000;2023-01-29T05:06:15;2.10;82.10
70762;DHT22;58360;0.000;0.000;2023-01-29T05:08:43;2.00;82.30
70762;DHT22;58360;0.000;0.000;2023-01-29T05:11:10;1.90;82.80
70762;DHT22;58360;0.000;0.000;2023-01-29T05:13:38;1.90;83.00
70762;DHT22;58360;0.000;0.000;2023-01-29T05:16:28;1.90;83.40
70762;DHT22;58360;0.000;0.000;2023-01-29T05:18:55;1.90;83.30
70762;DHT22;58360;0.000;0.000;2023-01-29T05:21:21;2.00;83.20
70762;DHT22;58360;0.000;0.000;2023-01-29T05:24:07;2.00;82.70
70762;DHT22;58360;0.000;0.000;2023-01-29T05:26:33;2.10;82.50
70762;DHT22;58360;0.000;0.000;2023-01-29T05:29:18;1.90;83.00
70762;DHT22;58360;0.000;0.000;2023-01-29T05:31:44;2.00;83.00
70762;DHT22;58360;0.000;0.000;2023-01-29T05:34:10;1.90;83.20
70762;DHT22;58360;0.000;0.000;2023-01-29T05:36:35;1.80;83.70
70762;DHT22;58360;0.000;0.000;2023-01-29T05:39:01;1.70;84.00
70762;DHT22;58360;0.000;0.000;2023-01-29T05:41:27;1.90;83.60
70762;DHT22;58360;0.000;0.000;2023-01-29T05:43:52;2.00;83.30
70762;DHT22;58360;0.000;0.000;2023-01-29T05:46:18;2.00;83.70
70762;DHT22;58360;0.000;0.000;2023-01-29T05:48:44;2.10;83.00
70762;DHT22;58360;0.000;0.000;2023-01-29T05:51:09;2.00;83.20
70762;DHT22;58360;0.000;0.000;2023-01-29T05:53:35;2.00;83.10
70762;DHT22;58360;0.000;0.000;2023-01-29T05:56:02;2.10;82.80
70762;DHT22;58360;0.000;0.000;2023-01-29T05:58:32;2.00;82.90
70762;DHT22;58360;0.000;0.000;2023-01-29T06:01:06;2.00;83.20
70762;DHT22;58360;0.000;0.000;2023-01-29T06:03:31;2.20;82.80
70762;DHT22;58360;0.000;0.000;2023-01-29T06:05:57;2.10;83.00
70762;DHT22;58360;0.000;0.000;2023-01-29T06:08:23;2.00;83.80
70762;DHT22;58360;0.000;0.000;2023-01-29T06:10:48;1.90;84.40
70762;DHT22;58360;0.000;0.000;2023-01-29T06:13:14;1.90;84.40
70762;DHT22;58360;0.000;0.000;2023-01-29T06:15:40;2.00;84.50
70762;DHT22;58360;0.000;0.000;2023-01-29T06:18:06;2.00;84.30
70762;DHT22;58360;0.000;0.000;2023-01-29T06:20:31;2.00;84.40
70762;DHT22;58360;0.000;0.000;2023-01-29T06:22:57;2.10;83.90
70762;DHT22;58360;0.000;0.000;2023-01-29T06:25:23;2.20;83.50
70762;DHT22;58360;0.000;0.000;2023-01-29T06:27:51;2.20;83.60
70762;DHT22;58360;0.000;0.000;2023-01-29T06:30:17;2.30;83.10
70762;DHT22;58360;0.000;0.000;2023-01-29T06:32:43;2.40;82.50
70762;DHT22;58360;0.000;0.000;2023-01-29T06:35:09;2.40;82.50
70762;DHT22;58360;0.000;0.000;2023-01-29T06:37:35;2.40;83.00
70762;DHT22;58360;0.000;0.000;2023-01-29T06:40:01;2.30;83.30
70762;DHT22;58360;0.000;0.000;2023-01-29T06:42:26;2.20;83.90
70762;DHT22;58360;0.000;0.000;2023-01-29T06:44:55;2.40;83.30
70762;DHT22;58360;0.000;0.000;2023-01-29T06:47:22;2.50;82.70
70762;DHT22;58360;0.000;0.000;2023-01-29T06:49:49;2.30;83.30
70762;DHT22;58360;0.000;0.000;2023-01-29T06:52:14;2.40;83.30
70762;DHT22;58360;0.000;0.000;2023-01-29T06:54:40;2.30;84.10
70762;DHT22;58360;0.000;0.000;2023-01-29T06:57:06;2.20;83.90
70762;DHT22;58360;0.000;0.000;2023-01-29T06:59:31;2.20;84.00
70762;DHT22;58360;0.000;0.000;2023-01-29T07:01:57;2.20;84.00
70762;DHT22;58360;0.000;0.000;2023-01-29T07:04:23;2.30;84.30
70762;DHT22;58360;0.000;0.000;2023-01-29T07:06:49;2.30;83.90
70762;DHT22;58360;0.000;0.000;2023-01-29T07:09:15;2.30;83.80
70762;DHT22;58360;0.000;0.000;2023-01-29T07:11:40;2.20;84.20
70762;DHT22;58360;0.000;0.000;2023-01-29T07:14:06;2.20;84.50
70762;DHT22;58360;0.000;0.000;2023-01-29T07:16:32;2.10;84.60
70762;DHT22;58360;0.000;0.000;2023-01-29T07:18:58;2.20;84.60
70762;DHT22;58360;0.000;0.000;2023-01-29T07:21:24;2.40;83.80
70762;DHT22;58360;0.000;0.000;2023-01-29T07:23:50;2.40;83.50
70762;DHT22;58360;0.000;0.000;2023-01-29T07:26:15;2.40;83.30
70762;DHT22;58360;0.000;0.000;2023-01-29T07:28:41;2.50;83.10
70762;DHT22;58360;0.000;0.000;2023-01-29T07:31:08;2.50;83.10
70762;DHT22;58360;0.000;0.000;2023-01-29T07:33:36;2.40;83.40
70762;DHT22;58360;0.000;0.000;2023-01-29T07:36:05;2.40;83.90
70762;DHT22;58360;0.000;0.000;2023-01-29T07:38:31;2.30;84.30
70762;DHT22;58360;0.000;0.000;2023-01-29T07:40:57;2.40;84.20
70762;DHT22;58360;0.000;0.000;2023-01-29T07:43:22;2.80;83.10
70762;DHT22;58360;0.000;0.000;2023-01-29T07:45:49;3.00;81.30
70762;DHT22;58360;0.000;0.000;2023-01-29T07:48:15;2.80;81.90
70762;DHT22;58360;0.000;0.000;2023-01-29T07:50:41;2.80;82.50
70762;DHT22;58360;0.000;0.000;2023-01-29T07:53:12;3.00;81.10
70762;DHT22;58360;0.000;0.000;2023-01-29T07:55:38;2.90;81.40
70762;DHT22;58360;0.000;0.000;2023-01-29T07:58:04;2.90;81.80
70762;DHT22;58360;0.000;0.000;2023-01-29T08:00:30;3.00;81.20
70762;DHT22;58360;0.000;0.000;2023-01-29T08:03:11;3.00;81.20
70762;DHT22;58360;0.000;0.000;2023-01-29T08:05:37;2.90;81.70
70762;DHT22;58360;0.000;0.000;2023-01-29T08:08:03;2.90;82.80
70762;DHT22;58360;0.000;0.000;2023-01-29T08:10:30;2.80;82.40
70762;DHT22;58360;0.000;0.000;2023-01-29T08:12:57;2.90;82.30
70762;DHT22;58360;0.000;0.000;2023-01-29T08:15:24;2.90;82.10
70762;DHT22;58360;0.000;0.000;2023-01-29T08:17:50;2.80;82.50
70762;DHT22;58360;0.000;0.000;2023-01-29T08:20:16;2.80;82.50
70762;DHT22;58360;0.000;0.000;2023-01-29T08:22:41;2.80;82.60
70762;DHT22;58360;0.000;0.000;2023-01-29T08:25:08;2.70;82.80
70762;DHT22;58360;0.000;0.000;2023-01-29T08:27:34;2.70;83.50
70762;DHT22;58360;0.000;0.000;2023-01-29T08:29:59;2.70;83.50
70762;DHT22;58360;0.000;0.000;2023-01-29T08:32:25;2.80;83.30
70762;DHT22;58360;0.000;0.000;2023-01-29T08:34:51;2.80;83.20
70762;DHT22;58360;0.000;0.000;2023-01-29T08:37:17;2.80;83.40
70762;DHT22;58360;0.000;0.000;2023-01-29T08:39:42;2.80;83.20
70762;DHT22;58360;0.000;0.000;2023-01-29T08:42:08;2.90;82.70
70762;DHT22;58360;0.000;0.000;2023-01-29T08:44:34;2.80;82.90
70762;DHT22;58360;0.000;0.000;2023-01-29T08:46:59;2.90;83.00
70762;DHT22;58360;0.000;0.000;2023-01-29T08:49:25;3.00;82.20
70762;DHT22;58360;0.000;0.000;2023-01-29T08:51:51;3.10;82.30
70762;DHT22;58360;0.000;0.000;2023-01-29T08:54:18;3.10;82.20
70762;DHT22;58360;0.000;0.000;2023-01-29T08:56:43;3.20;82.10
70762;DHT22;58360;0.000;0.000;2023-01-29T08:59:09;3.20;82.20
70762;DHT22;58360;0.000;0.000;2023-01-29T09:01:35;3.20;81.80
70762;DHT22;58360;0.000;0.000;2023-01-29T09:04:01;3.40;81.20
70762;DHT22;58360;0.000;0.000;2023-01-29T09:06:27;3.40;80.80
70762;DHT22;58360;0.000;0.000;2023-01-29T09:08:52;3.50;80.40
70762;DHT22;58360;0.000;0.000;2023-01-29T09:11:18;3.50;80.40
70762;DHT22;58360;0.000;0.000;2023-01-29T09:13:44;3.30;81.40
70762;DHT22;58360;0.000;0.000;2023-01-29T09:16:10;3.20;82.10
70762;DHT22;58360;0.000;0.000;2023-01-29T09:18:35;3.20;82.40
70762;DHT22;58360;0.000;0.000;2023-01-29T09:21:01;3.20;82.60
70762;DHT22;58360;0.000;0.000;2023-01-29T09:23:28;3.30;82.30
70762;DHT22;58360;0.000;0.000;2023-01-29T09:25:54;3.20;82.20
70762;DHT22;58360;0.000;0.000;2023-01-29T09:28:20;3.30;82.30
70762;DHT22;58360;0.000;0.000;2023-01-29T09:30:46;3.30;82.00
70762;DHT22;58360;0.000;0.000;2023-01-29T09:33:11;3.40;82.20
70762;DHT22;58360;0.000;0.000;2023-01-29T09:35:40;3.40;82.10
70762;DHT22;58360;0.000;0.000;2023-01-29T09:38:06;3.40;81.80
70762;DHT22;58360;0.000;0.000;2023-01-29T09:43:22;3.60;81.00
70762;DHT22;58360;0.000;0.000;2023-01-29T09:48:45;3.70;80.90
70762;DHT22;58360;0.000;0.000;2023-01-29T09:51:33;3.80;80.30
70762;DHT22;58360;0.000;0.000;2023-01-29T09:56:44;3.80;80.70
70762;DHT22;58360;0.000;0.000;2023-01-29T09:59:12;3.80;80.70
70762;DHT22;58360;0.000;0.000;2023-01-29T10:01:53;3.80;80.30
70762;DHT22;58360;0.000;0.000;2023-01-29T10:10:50;4.00;79.80
70762;DHT22;58360;0.000;0.000;2023-01-29T10:13:28;4.10;79.40
70762;DHT22;58360;0.000;0.000;2023-01-29T10:17:24;4.10;79.60
70762;DHT22;58360;0.000;0.000;2023-01-29T10:25:03;4.40;77.80
70762;DHT22;58360;0.000;0.000;2023-01-29T10:27:33;4.40;77.50
70762;DHT22;58360;0.000;0.000;2023-01-29T10:30:01;4.40;78.00
70762;DHT22;58360;0.000;0.000;2023-01-29T10:32:28;4.40;77.60
70762;DHT22;58360;0.000;0.000;2023-01-29T10:35:03;4.40;77.70
70762;DHT22;58360;0.000;0.000;2023-01-29T10:37:42;4.40;77.80
70762;DHT22;58360;0.000;0.000;2023-01-29T10:43:08;4.70;76.70
70762;DHT22;58360;0.000;0.000;2023-01-29T10:46:02;4.70;75.70
70762;DHT22;58360;0.000;0.000;2023-01-29T10:49:31;4.80;75.60
70762;DHT22;58360;0.000;0.000;2023-01-29T11:00:11;4.80;75.40
70762;DHT22;58360;0.000;0.000;2023-01-29T11:02:48;4.80;75.00
70762;DHT22;58360;0.000;0.000;2023-01-29T11:05:35;4.90;74.80
70762;DHT22;58360;0.000;0.000;2023-01-29T11:08:07;5.00;74.20
70762;DHT22;58360;0.000;0.000;2023-01-29T11:10:54;4.90;74.40
70762;DHT22;58360;0.000;0.000;2023-01-29T11:13:22;5.00;73.20
70762;DHT22;58360;0.000;0.000;2023-01-29T11:15:51;5.10;72.70
70762;DHT22;58360;0.000;0.000;2023-01-29T11:18:17;5.00;72.90
70762;DHT22;58360;0.000;0.000;2023-01-29T11:20:44;4.70;74.20
70762;DHT22;58360;0.000;0.000;2023-01-29T11:23:31;4.80;74.10
70762;DHT22;58360;0.000;0.000;2023-01-29T11:25:58;4.80;73.70
70762;DHT22;58360;0.000;0.000;2023-01-29T11:28:44;4.80;74.40
70762;DHT22;58360;0.000;0.000;2023-01-29T11:31:36;4.80;74.80
70762;DHT22;58360;0.000;0.000;2023-01-29T11:34:04;5.00;74.10
70762;DHT22;58360;0.000;0.000;2023-01-29T11:36:34;5.20;73.60
70762;DHT22;58360;0.000;0.000;2023-01-29T11:39:20;5.30;73.20
70762;DHT22;58360;0.000;0.000;2023-01-29T11:49:52;6.00;70.10
70762;DHT22;58360;0.000;0.000;2023-01-29T11:52:20;5.80;70.30
70762;DHT22;58360;0.000;0.000;2023-01-29T11:57:39;5.80;70.80
70762;DHT22;58360;0.000;0.000;2023-01-29T12:00:17;5.70;71.10
70762;DHT22;58360;0.000;0.000;2023-01-29T12:02:54;5.80;70.60
70762;DHT22;58360;0.000;0.000;2023-01-29T12:05:25;5.70;70.90
70762;DHT22;58360;0.000;0.000;2023-01-29T12:07:54;5.80;71.10
70762;DHT22;58360;0.000;0.000;2023-01-29T12:10:33;5.80;71.30
70762;DHT22;58360;0.000;0.000;2023-01-29T12:13:26;6.00;71.00
70762;DHT22;58360;0.000;0.000;2023-01-29T12:16:14;6.10;71.20
70762;DHT22;58360;0.000;0.000;2023-01-29T12:18:45;6.30;70.30
70762;DHT22;58360;0.000;0.000;2023-01-29T12:24:33;6.20;70.00
70762;DHT22;58360;0.000;0.000;2023-01-29T12:27:08;6.10;70.40
70762;DHT22;58360;0.000;0.000;2023-01-29T12:35:36;6.20;69.90
70762;DHT22;58360;0.000;0.000;2023-01-29T12:38:05;6.10;69.90
70762;DHT22;58360;0.000;0.000;2023-01-29T12:40:47;6.10;70.00
70762;DHT22;58360;0.000;0.000;2023-01-29T12:43:32;6.00;70.00
70762;DHT22;58360;0.000;0.000;2023-01-29T12:46:00;6.00;70.20
70762;DHT22;58360;0.000;0.000;2023-01-29T12:48:32;6.00;70.50
70762;DHT22;58360;0.000;0.000;2023-01-29T12:51:06;6.00;70.20
70762;DHT22;58360;0.000;0.000;2023-01-29T12:53:55;6.00;70.20
70762;DHT22;58360;0.000;0.000;2023-01-29T12:56:38;6.10;70.60
70762;DHT22;58360;0.000;0.000;2023-01-29T12:59:28;6.20;69.90
70762;DHT22;58360;0.000;0.000;2023-01-29T13:01:58;6.20;69.80
70762;DHT22;58360;0.000;0.000;2023-01-29T13:04:44;6.30;69.40
70762;DHT22;58360;0.000;0.000;2023-01-29T13:07:18;6.40;69.40
70762;DHT22;58360;0.000;0.000;2023-01-29T13:09:56;6.40;69.00
70762;DHT22;58360;0.000;0.000;2023-01-29T13:12:26;6.50;68.70
70762;DHT22;58360;0.000;0.000;2023-01-29T13:15:02;6.60;69.10
70762;DHT22;58360;0.000;0.000;2023-01-29T13:17:51;6.50;68.40
70762;DHT22;58360;0.000;0.000;2023-01-29T13:20:28;6.30;68.80
70762;DHT22;58360;0.000;0.000;2023-01-29T13:22:59;6.30;69.30
70762;DHT22;58360;0.000;0.000;2023-01-29T13:25:26;6.40;69.30
70762;DHT22;58360;0.000;0.000;2023-01-29T13:27:52;6.50;68.40
70762;DHT22;58360;0.000;0.000;2023-01-29T13:30:29;6.50;68.50
70762;DHT22;58360;0.000;0.000;2023-01-29T13:32:56;6.40;68.00
70762;DHT22;58360;0.000;0.000;2023-01-29T13:35:40;6.10;68.40
70762;DHT22;58360;0.000;0.000;2023-01-29T13:38:28;5.90;69.20
70762;DHT22;58360;0.000;0.000;2023-01-29T13:41:02;5.90;69.40
70762;DHT22;58360;0.000;0.000;2023-01-29T13:43:34;5.70;69.70
70762;DHT22;58360;0.000;0.000;2023-01-29T13:46:05;5.50;70.30
70762;DHT22;58360;0.000;0.000;2023-01-29T13:48:33;5.60;70.10
70762;DHT22;58360;0.000;0.000;2023-01-29T13:51:03;5.60;70.20
70762;DHT22;58360;0.000;0.000;2023-01-29T13:53:38;5.60;70.60
70762;DHT22;58360;0.000;0.000;2023-01-29T13:59:03;5.60;71.00
70762;DHT22;58360;0.000;0.000;2023-01-29T14:04:23;5.60;71.00
70762;DHT22;58360;0.000;0.000;2023-01-29T14:06:55;5.70;70.80
70762;DHT22;58360;0.000;0.000;2023-01-29T14:12:02;5.70;70.90
70762;DHT22;58360;0.000;0.000;2023-01-29T14:17:14;5.90;69.20
70762;DHT22;58360;0.000;0.000;2023-01-29T14:19:48;5.80;69.80
70762;DHT22;58360;0.000;0.000;2023-01-29T14:22:23;5.80;70.10
70762;DHT22;58360;0.000;0.000;2023-01-29T14:24:57;5.70;69.70
70762;DHT22;58360;0.000;0.000;2023-01-29T14:27:24;5.60;70.20
70762;DHT22;58360;0.000;0.000;2023-01-29T14:29:51;5.60;70.30
70762;DHT22;58360;0.000;0.000;2023-01-29T14:32:23;5.60;70.60
70762;DHT22;58360;0.000;0.000;2023-01-29T14:35:01;5.60;70.60
70762;DHT22;58360;0.000;0.000;2023-01-29T14:37:34;5.50;71.20
70762;DHT22;58360;0.000;0.000;2023-01-29T14:42:38;5.50;71.50
70762;DHT22;58360;0.000;0.000;2023-01-29T14:50:45;5.60;71.40
70762;DHT22;58360;0.000;0.000;2023-01-29T14:53:42;5.60;71.00
70762;DHT22;58360;0.000;0.000;2023-01-29T14:56:36;5.60;70.90
70762;DHT22;58360;0.000;0.000;2023-01-29T15:01:38;5.60;71.40
70762;DHT22;58360;0.000;0.000;2023-01-29T15:04:22;5.60;71.80
70762;DHT22;58360;0.000;0.000;2023-01-29T15:07:24;5.60;71.20
70762;DHT22;58360;0.000;0.000;2023-01-29T15:18:00;5.50;72.60
70762;DHT22;58360;0.000;0.000;2023-01-29T15:20:31;5.50;72.40
70762;DHT22;58360;0.000;0.000;2023-01-29T15:22:58;5.50;72.40
70762;DHT22;58360;0.000;0.000;2023-01-29T15:25:26;5.60;72.30
70762;DHT22;58360;0.000;0.000;2023-01-29T15:27:57;5.60;72.70
70762;DHT22;58360;0.000;0.000;2023-01-29T15:30:31;5.60;72.10
70762;DHT22;58360;0.000;0.000;2023-01-29T15:32:57;5.50;72.60
70762;DHT22;58360;0.000;0.000;2023-01-29T15:35:40;5.40;73.10
70762;DHT22;58360;0.000;0.000;2023-01-29T15:38:20;5.40;73.20
70762;DHT22;58360;0.000;0.000;2023-01-29T15:40:57;5.50;73.40
70762;DHT22;58360;0.000;0.000;2023-01-29T15:43:28;5.50;73.20
70762;DHT22;58360;0.000;0.000;2023-01-29T15:48:49;5.70;72.80
70762;DHT22;58360;0.000;0.000;2023-01-29T15:51:18;5.60;72.90
70762;DHT22;58360;0.000;0.000;2023-01-29T15:53:57;5.50;73.30
70762;DHT22;58360;0.000;0.000;2023-01-29T15:56:45;5.40;73.80
70762;DHT22;58360;0.000;0.000;2023-01-29T15:59:21;5.40;73.60
70762;DHT22;58360;0.000;0.000;2023-01-29T16:01:48;5.50;74.10
70762;DHT22;58360;0.000;0.000;2023-01-29T16:04:18;5.50;73.90
70762;DHT22;58360;0.000;0.000;2023-01-29T16:06:45;5.50;73.50
70762;DHT22;58360;0.000;0.000;2023-01-29T16:09:17;5.60;73.60
70762;DHT22;58360;0.000;0.000;2023-01-29T16:11:45;5.50;73.40
70762;DHT22;58360;0.000;0.000;2023-01-29T16:14:16;5.50;74.00
70762;DHT22;58360;0.000;0.000;2023-01-29T16:16:45;5.50;74.20
70762;DHT22;58360;0.000;0.000;2023-01-29T16:19:23;5.50;73.80
70762;DHT22;58360;0.000;0.000;2023-01-29T16:22:00;5.40;74.10
70762;DHT22;58360;0.000;0.000;2023-01-29T16:24:28;5.40;74.50
70762;DHT22;58360;0.000;0.000;2023-01-29T16:26:58;5.40;74.60
70762;DHT22;58360;0.000;0.000;2023-01-29T16:29:30;5.30;74.70
70762;DHT22;58360;0.000;0.000;2023-01-29T16:31:56;5.30;75.20
70762;DHT22;58360;0.000;0.000;2023-01-29T16:34:29;5.30;75.10
70762;DHT22;58360;0.000;0.000;2023-01-29T16:36:58;5.40;75.20
70762;DHT22;58360;0.000;0.000;2023-01-29T16:39:29;5.40;75.20
70762;DHT22;58360;0.000;0.000;2023-01-29T16:47:27;5.40;75.20
70762;DHT22;58360;0.000;0.000;2023-01-29T16:52:28;5.40;75.50
70762;DHT22;58360;0.000;0.000;2023-01-29T16:55:12;5.30;76.10
70762;DHT22;58360;0.000;0.000;2023-01-29T16:57:40;5.30;76.30
70762;DHT22;58360;0.000;0.000;2023-01-29T17:00:12;5.30;76.40
70762;DHT22;58360;0.000;0.000;2023-01-29T17:02:42;5.50;75.50
70762;DHT22;58360;0.000;0.000;2023-01-29T17:05:13;5.40;75.70
70762;DHT22;58360;0.000;0.000;2023-01-29T17:07:43;5.40;75.80
70762;DHT22;58360;0.000;0.000;2023-01-29T17:10:16;5.50;75.80
70762;DHT22;58360;0.000;0.000;2023-01-29T17:12:49;5.40;76.40
70762;DHT22;58360;0.000;0.000;2023-01-29T17:17:56;5.30;76.70
70762;DHT22;58360;0.000;0.000;2023-01-29T17:20:22;5.30;77.00
70762;DHT22;58360;0.000;0.000;2023-01-29T17:22:48;5.20;77.40
70762;DHT22;58360;0.000;0.000;2023-01-29T17:25:14;5.20;78.10
70762;DHT22;58360;0.000;0.000;2023-01-29T17:27:41;5.20;78.40
70762;DHT22;58360;0.000;0.000;2023-01-29T17:30:13;5.00;78.80
70762;DHT22;58360;0.000;0.000;2023-01-29T17:32:39;5.30;78.00
70762;DHT22;58360;0.000;0.000;2023-01-29T17:35:05;5.30;77.80
70762;DHT22;58360;0.000;0.000;2023-01-29T17:37:31;5.30;77.90
70762;DHT22;58360;0.000;0.000;2023-01-29T17:39:57;5.20;78.10
70762;DHT22;58360;0.000;0.000;2023-01-29T17:42:25;5.30;77.50
70762;DHT22;58360;0.000;0.000;2023-01-29T17:44:53;5.20;77.80
70762;DHT22;58360;0.000;0.000;2023-01-29T17:47:18;5.20;78.20
70762;DHT22;58360;0.000;0.000;2023-01-29T17:49:44;5.20;78.00
70762;DHT22;58360;0.000;0.000;2023-01-29T17:52:10;5.30;77.70
70762;DHT22;58360;0.000;0.000;2023-01-29T17:54:36;5.30;77.50
70762;DHT22;58360;0.000;0.000;2023-01-29T17:57:02;5.30;77.60
70762;DHT22;58360;0.000;0.000;2023-01-29T17:59:29;5.20;78.20
70762;DHT22;58360;0.000;0.000;2023-01-29T18:01:55;5.20;78.40
70762;DHT22;58360;0.000;0.000;2023-01-29T18:04:21;5.10;78.70
70762;DHT22;58360;0.000;0.000;2023-01-29T18:06:48;5.20;78.80
70762;DHT22;58360;0.000;0.000;2023-01-29T18:09:16;5.20;79.00
70762;DHT22;58360;0.000;0.000;2023-01-29T18:11:45;5.10;79.00
70762;DHT22;58360;0.000;0.000;2023-01-29T18:14:11;5.10;79.30
70762;DHT22;58360;0.000;0.000;2023-01-29T18:16:37;5.10;79.60
70762;DHT22;58360;0.000;0.000;2023-01-29T18:19:13;5.10;79.60
70762;DHT22;58360;0.000;0.000;2023-01-29T18:21:39;5.10;79.80
70762;DHT22;58360;0.000;0.000;2023-01-29T18:24:05;5.10;79.90
70762;DHT22;58360;0.000;0.000;2023-01-29T18:26:30;5.10;79.90
70762;DHT22;58360;0.000;0.000;2023-01-29T18:28:56;5.20;79.70
70762;DHT22;58360;0.000;0.000;2023-01-29T18:31:21;5.20;79.90
70762;DHT22;58360;0.000;0.000;2023-01-29T18:33:47;5.20;79.80
70762;DHT22;58360;0.000;0.000;2023-01-29T18:36:13;5.20;79.90
70762;DHT22;58360;0.000;0.000;2023-01-29T18:38:38;5.20;80.30
70762;DHT22;58360;0.000;0.000;2023-01-29T18:41:05;5.10;80.40
70762;DHT22;58360;0.000;0.000;2023-01-29T18:43:34;5.20;80.20
70762;DHT22;58360;0.000;0.000;2023-01-29T18:46:00;5.20;80.70
70762;DHT22;58360;0.000;0.000;2023-01-29T18:48:25;5.20;81.00
70762;DHT22;58360;0.000;0.000;2023-01-29T18:50:51;5.30;80.70
70762;DHT22;58360;0.000;0.000;2023-01-29T18:53:17;5.30;80.60
70762;DHT22;58360;0.000;0.000;2023-01-29T18:55:42;5.30;81.20
70762;DHT22;58360;0.000;0.000;2023-01-29T18:58:08;5.20;81.40